sensor_id;sensor_type;location;lat;lon;timestamp;pressure;altitude;pressure_sealevel;temperature;humidity
68656;BME280;55638;51.122;13.606;2023-05-21T00:01:09;100375.66;;;11.51;54.97
68656;BME280;55638;51.122;13.606;2023-05-21T00:02:47;100378.50;;;11.49;54.97
68656;BME280;55638;51.122;13.606;2023-05-21T00:04:19;100380.47;;;11.47;54.93
68656;BME280;55638;51.122;13.606;2023-05-21T00:05:51;100374.22;;;11.47;54.84
68656;BME280;55638;51.122;13.606;2023-05-21T00:07:23;100372.63;;;11.44;54.74
68656;BME280;55638;51.122;13.606;2023-05-21T00:08:56;100370.94;;;11.43;54.71
68656;BME280;55638;51.122;13.606;2023-05-21T00:10:27;100373.03;;;11.40;54.68
68656;BME280;55638;51.122;13.606;2023-05-21T00:11:59;100381.28;;;11.38;54.85
68656;BME280;55638;51.122;13.606;2023-05-21T00:13:31;100371.69;;;11.34;54.98
68656;BME280;55638;51.122;13.606;2023-05-21T00:15:03;100361.16;;;11.31;54.96
68656;BME280;55638;51.122;13.606;2023-05-21T00:16:36;100369.41;;;11.29;54.94
68656;BME280;55638;51.122;13.606;2023-05-21T00:18:08;100369.66;;;11.26;54.87
68656;BME280;55638;51.122;13.606;2023-05-21T00:19:40;100362.81;;;11.22;55.12
68656;BME280;55638;51.122;13.606;2023-05-21T00:21:16;100366.47;;;11.21;55.05
68656;BME280;55638;51.122;13.606;2023-05-21T00:22:48;100365.03;;;11.17;55.18
68656;BME280;55638;51.122;13.606;2023-05-21T00:24:19;100366.97;;;11.15;55.35
68656;BME280;55638;51.122;13.606;2023-05-21T00:25:52;100368.13;;;11.12;55.37
68656;BME280;55638;51.122;13.606;2023-05-21T00:27:23;100369.22;;;11.10;55.59
68656;BME280;55638;51.122;13.606;2023-05-21T00:28:56;100361.13;;;11.10;55.58
68656;BME280;55638;51.122;13.606;2023-05-21T00:30:28;100360.38;;;11.08;55.79
68656;BME280;55638;51.122;13.606;2023-05-21T00:32:00;100360.38;;;11.08;55.74
68656;BME280;55638;51.122;13.606;2023-05-21T00:33:32;100359.53;;;11.07;56.00
68656;BME280;55638;51.122;13.606;2023-05-21T00:35:05;100355.00;;;11.08;56.02
68656;BME280;55638;51.122;13.606;2023-05-21T00:36:37;100362.13;;;11.09;56.20
68656;BME280;55638;51.122;13.606;2023-05-21T00:38:11;100345.94;;;11.09;56.28
68656;BME280;55638;51.122;13.606;2023-05-21T00:39:42;100347.50;;;11.11;56.51
68656;BME280;55638;51.122;13.606;2023-05-21T00:41:15;100351.06;;;11.12;56.75
68656;BME280;55638;51.122;13.606;2023-05-21T00:42:47;100352.38;;;11.18;56.65
68656;BME280;55638;51.122;13.606;2023-05-21T00:44:20;100347.72;;;11.20;56.74
68656;BME280;55638;51.122;13.606;2023-05-21T00:45:53;100342.19;;;11.21;56.69
68656;BME280;55638;51.122;13.606;2023-05-21T00:47:27;100336.69;;;11.23;56.80
68656;BME280;55638;51.122;13.606;2023-05-21T00:49:00;100336.28;;;11.27;56.88
68656;BME280;55638;51.122;13.606;2023-05-21T00:50:32;100336.16;;;11.29;56.77
68656;BME280;55638;51.122;13.606;2023-05-21T00:52:05;100332.34;;;11.31;56.82
68656;BME280;55638;51.122;13.606;2023-05-21T00:53:38;100335.75;;;11.33;56.67
68656;BME280;55638;51.122;13.606;2023-05-21T00:55:10;100331.09;;;11.35;56.44
68656;BME280;55638;51.122;13.606;2023-05-21T00:56:42;100333.66;;;11.37;56.56
68656;BME280;55638;51.122;13.606;2023-05-21T00:58:14;100322.84;;;11.37;56.42
68656;BME280;55638;51.122;13.606;2023-05-21T00:59:50;100326.41;;;11.38;56.54
68656;BME280;55638;51.122;13.606;2023-05-21T01:01:23;100329.09;;;11.38;56.28
68656;BME280;55638;51.122;13.606;2023-05-21T01:02:59;100318.31;;;11.38;56.17
68656;BME280;55638;51.122;13.606;2023-05-21T01:04:31;100317.47;;;11.37;56.27
68656;BME280;55638;51.122;13.606;2023-05-21T01:06:04;100316.63;;;11.36;56.36
68656;BME280;55638;51.122;13.606;2023-05-21T01:07:38;100321.28;;;11.34;56.40
68656;BME280;55638;51.122;13.606;2023-05-21T01:09:12;100319.56;;;11.33;56.53
68656;BME280;55638;51.122;13.606;2023-05-21T01:10:44;100316.88;;;11.33;56.28
68656;BME280;55638;51.122;13.606;2023-05-21T01:12:17;100326.97;;;11.31;56.56
68656;BME280;55638;51.122;13.606;2023-05-21T01:13:49;100322.53;;;11.30;56.35
68656;BME280;55638;51.122;13.606;2023-05-21T01:15:21;100314.56;;;11.29;56.38
68656;BME280;55638;51.122;13.606;2023-05-21T01:16:53;100314.69;;;11.27;56.19
68656;BME280;55638;51.122;13.606;2023-05-21T01:18:25;100314.84;;;11.26;56.35
68656;BME280;55638;51.122;13.606;2023-05-21T01:19:58;100316.78;;;11.24;56.26
68656;BME280;55638;51.122;13.606;2023-05-21T01:21:32;100313.25;;;11.23;56.55
68656;BME280;55638;51.122;13.606;2023-05-21T01:23:08;100316.19;;;11.20;56.40
68656;BME280;55638;51.122;13.606;2023-05-21T01:24:39;100311.78;;;11.19;56.43
68656;BME280;55638;51.122;13.606;2023-05-21T01:26:13;100307.50;;;11.17;56.46
68656;BME280;55638;51.122;13.606;2023-05-21T01:27:45;100319.28;;;11.16;56.36
68656;BME280;55638;51.122;13.606;2023-05-21T01:29:17;100311.56;;;11.11;56.48
68656;BME280;55638;51.122;13.606;2023-05-21T01:30:49;100301.88;;;11.08;56.32
68656;BME280;55638;51.122;13.606;2023-05-21T01:32:31;100307.41;;;11.07;56.25
68656;BME280;55638;51.122;13.606;2023-05-21T01:34:08;100306.81;;;11.03;56.64
68656;BME280;55638;51.122;13.606;2023-05-21T01:35:57;100300.09;;;10.98;56.70
68656;BME280;55638;51.122;13.606;2023-05-21T01:37:40;100310.03;;;10.97;56.85
68656;BME280;55638;51.122;13.606;2023-05-21T01:39:20;100293.25;;;10.94;56.75
68656;BME280;55638;51.122;13.606;2023-05-21T01:40:56;100296.19;;;10.91;56.16
68656;BME280;55638;51.122;13.606;2023-05-21T01:42:32;100297.31;;;10.88;56.26
68656;BME280;55638;51.122;13.606;2023-05-21T01:44:07;100295.72;;;10.85;56.11
68656;BME280;55638;51.122;13.606;2023-05-21T01:45:41;100296.84;;;10.83;56.31
68656;BME280;55638;51.122;13.606;2023-05-21T01:47:15;100299.91;;;10.78;56.22
68656;BME280;55638;51.122;13.606;2023-05-21T01:48:49;100292.06;;;10.75;56.65
68656;BME280;55638;51.122;13.606;2023-05-21T01:50:23;100291.38;;;10.73;56.46
68656;BME280;55638;51.122;13.606;2023-05-21T01:51:56;100298.72;;;10.71;56.60
68656;BME280;55638;51.122;13.606;2023-05-21T01:53:27;100294.56;;;10.67;56.59
68656;BME280;55638;51.122;13.606;2023-05-21T01:54:59;100301.88;;;10.65;56.82
68656;BME280;55638;51.122;13.606;2023-05-21T01:56:31;100293.94;;;10.63;56.97
68656;BME280;55638;51.122;13.606;2023-05-21T01:58:04;100292.34;;;10.61;56.82
68656;BME280;55638;51.122;13.606;2023-05-21T01:59:36;100297.00;;;10.59;56.87
68656;BME280;55638;51.122;13.606;2023-05-21T02:01:08;100301.66;;;10.57;57.05
68656;BME280;55638;51.122;13.606;2023-05-21T02:02:40;100300.78;;;10.56;57.06
68656;BME280;55638;51.122;13.606;2023-05-21T02:04:12;100299.22;;;10.54;57.19
68656;BME280;55638;51.122;13.606;2023-05-21T02:05:44;100294.78;;;10.53;57.24
68656;BME280;55638;51.122;13.606;2023-05-21T02:07:16;100298.47;;;10.52;57.13
68656;BME280;55638;51.122;13.606;2023-05-21T02:08:48;100294.06;;;10.51;57.20
68656;BME280;55638;51.122;13.606;2023-05-21T02:10:21;100292.47;;;10.48;57.19
68656;BME280;55638;51.122;13.606;2023-05-21T02:11:54;100289.03;;;10.46;57.21
68656;BME280;55638;51.122;13.606;2023-05-21T02:13:26;100296.28;;;10.46;57.31
68656;BME280;55638;51.122;13.606;2023-05-21T02:15:00;100295.28;;;10.47;57.20
68656;BME280;55638;51.122;13.606;2023-05-21T02:16:34;100297.28;;;10.45;57.37
68656;BME280;55638;51.122;13.606;2023-05-21T02:18:07;100294.81;;;10.41;57.37
68656;BME280;55638;51.122;13.606;2023-05-21T02:19:40;100292.97;;;10.42;57.33
68656;BME280;55638;51.122;13.606;2023-05-21T02:21:12;100290.44;;;10.40;57.31
68656;BME280;55638;51.122;13.606;2023-05-21T02:22:48;100290.53;;;10.39;57.93
68656;BME280;55638;51.122;13.606;2023-05-21T02:24:20;100290.53;;;10.39;57.40
68656;BME280;55638;51.122;13.606;2023-05-21T02:25:52;100293.38;;;10.37;57.34
68656;BME280;55638;51.122;13.606;2023-05-21T02:27:24;100289.94;;;10.35;57.40
68656;BME280;55638;51.122;13.606;2023-05-21T02:28:58;100289.94;;;10.35;57.39
68656;BME280;55638;51.122;13.606;2023-05-21T02:30:29;100294.56;;;10.33;57.50
68656;BME280;55638;51.122;13.606;2023-05-21T02:32:01;100291.16;;;10.31;57.54
68656;BME280;55638;51.122;13.606;2023-05-21T02:33:33;100292.13;;;10.30;57.64
68656;BME280;55638;51.122;13.606;2023-05-21T02:35:05;100283.34;;;10.28;57.61
68656;BME280;55638;51.122;13.606;2023-05-21T02:36:38;100287.88;;;10.28;57.62
68656;BME280;55638;51.122;13.606;2023-05-21T02:38:12;100293.38;;;10.26;57.65
68656;BME280;55638;51.122;13.606;2023-05-21T02:39:44;100295.34;;;10.24;57.70
68656;BME280;55638;51.122;13.606;2023-05-21T02:41:16;100287.38;;;10.23;57.63
68656;BME280;55638;51.122;13.606;2023-05-21T02:42:48;100290.19;;;10.21;57.49
68656;BME280;55638;51.122;13.606;2023-05-21T02:44:23;100292.91;;;10.21;57.53
68656;BME280;55638;51.122;13.606;2023-05-21T02:45:55;100286.75;;;10.19;57.53
68656;BME280;55638;51.122;13.606;2023-05-21T02:47:28;100284.19;;;10.17;57.57
68656;BME280;55638;51.122;13.606;2023-05-21T02:49:00;100287.84;;;10.16;57.55
68656;BME280;55638;51.122;13.606;2023-05-21T02:50:31;100283.56;;;10.14;57.74
68656;BME280;55638;51.122;13.606;2023-05-21T02:52:04;100283.72;;;10.12;57.71
68656;BME280;55638;51.122;13.606;2023-05-21T02:53:36;100278.44;;;10.11;57.75
68656;BME280;55638;51.122;13.606;2023-05-21T02:55:08;100279.41;;;10.10;57.65
68656;BME280;55638;51.122;13.606;2023-05-21T02:56:40;100279.56;;;10.08;57.73
68656;BME280;55638;51.122;13.606;2023-05-21T02:58:13;100287.75;;;10.07;57.73
68656;BME280;55638;51.122;13.606;2023-05-21T02:59:45;100276.13;;;10.06;57.79
68656;BME280;55638;51.122;13.606;2023-05-21T03:01:17;100281.63;;;10.05;57.68
68656;BME280;55638;51.122;13.606;2023-05-21T03:02:49;100277.22;;;10.04;57.74
68656;BME280;55638;51.122;13.606;2023-05-21T03:04:21;100277.34;;;10.02;57.79
68656;BME280;55638;51.122;13.606;2023-05-21T03:05:53;100273.91;;;10.00;57.98
68656;BME280;55638;51.122;13.606;2023-05-21T03:07:25;100273.91;;;10.00;58.20
68656;BME280;55638;51.122;13.606;2023-05-21T03:08:57;100278.44;;;10.00;58.25
68656;BME280;55638;51.122;13.606;2023-05-21T03:10:29;100277.59;;;9.99;58.12
68656;BME280;55638;51.122;13.606;2023-05-21T03:12:01;100276.84;;;9.97;58.23
68656;BME280;55638;51.122;13.606;2023-05-21T03:13:33;100277.69;;;9.98;58.21
68656;BME280;55638;51.122;13.606;2023-05-21T03:15:05;100272.44;;;9.96;58.21
68656;BME280;55638;51.122;13.606;2023-05-21T03:16:37;100276.97;;;9.95;58.13
68656;BME280;55638;51.122;13.606;2023-05-21T03:18:12;100274.28;;;9.95;57.96
68656;BME280;55638;51.122;13.606;2023-05-21T03:19:44;100271.59;;;9.95;57.98
68656;BME280;55638;51.122;13.606;2023-05-21T03:21:16;100273.44;;;9.95;58.03
68656;BME280;55638;51.122;13.606;2023-05-21T03:22:48;100270.84;;;9.93;58.11
68656;BME280;55638;51.122;13.606;2023-05-21T03:24:20;100273.53;;;9.93;58.25
68656;BME280;55638;51.122;13.606;2023-05-21T03:25:52;100272.78;;;9.91;58.31
68656;BME280;55638;51.122;13.606;2023-05-21T03:27:25;100270.25;;;9.90;58.42
68656;BME280;55638;51.122;13.606;2023-05-21T03:28:58;100278.19;;;9.91;58.29
68656;BME280;55638;51.122;13.606;2023-05-21T03:30:30;100280.16;;;9.89;58.34
68656;BME280;55638;51.122;13.606;2023-05-21T03:32:20;100272.06;;;9.89;58.31
68656;BME280;55638;51.122;13.606;2023-05-21T03:33:53;100277.56;;;9.88;58.52
68656;BME280;55638;51.122;13.606;2023-05-21T03:35:28;100281.16;;;9.88;58.45
68656;BME280;55638;51.122;13.606;2023-05-21T03:37:00;100277.56;;;9.88;58.54
68656;BME280;55638;51.122;13.606;2023-05-21T03:38:32;100283.84;;;9.88;58.80
68656;BME280;55638;51.122;13.606;2023-05-21T03:40:08;100281.16;;;9.88;58.79
68656;BME280;55638;51.122;13.606;2023-05-21T03:41:41;100279.31;;;9.89;58.82
68656;BME280;55638;51.122;13.606;2023-05-21T03:43:19;100281.00;;;9.90;58.84
68656;BME280;55638;51.122;13.606;2023-05-21T03:44:51;100278.19;;;9.91;58.78
68656;BME280;55638;51.122;13.606;2023-05-21T03:46:49;100279.06;;;9.92;58.75
68656;BME280;55638;51.122;13.606;2023-05-21T03:48:25;100278.94;;;9.93;58.94
68656;BME280;55638;51.122;13.606;2023-05-21T03:49:58;100276.13;;;9.95;58.82
68656;BME280;55638;51.122;13.606;2023-05-21T03:51:30;100282.22;;;9.97;58.96
68656;BME280;55638;51.122;13.606;2023-05-21T03:53:02;100284.81;;;9.99;59.14
68656;BME280;55638;51.122;13.606;2023-05-21T03:54:34;100279.28;;;10.00;59.07
68656;BME280;55638;51.122;13.606;2023-05-21T03:56:10;100273.81;;;10.02;58.98
68656;BME280;55638;51.122;13.606;2023-05-21T03:57:42;100277.22;;;10.04;59.18
68656;BME280;55638;51.122;13.606;2023-05-21T03:59:14;100277.94;;;10.06;59.25
68656;BME280;55638;51.122;13.606;2023-05-21T04:00:47;100277.72;;;10.09;59.50
68656;BME280;55638;51.122;13.606;2023-05-21T04:02:20;100278.44;;;10.11;59.63
68656;BME280;55638;51.122;13.606;2023-05-21T04:03:52;100287.00;;;10.16;59.62
68656;BME280;55638;51.122;13.606;2023-05-21T04:05:27;100278.69;;;10.19;59.63
68656;BME280;55638;51.122;13.606;2023-05-21T04:06:59;100276.59;;;10.23;59.68
68656;BME280;55638;51.122;13.606;2023-05-21T04:08:31;100286.03;;;10.28;59.76
68656;BME280;55638;51.122;13.606;2023-05-21T04:10:04;100275.00;;;10.31;59.87
68656;BME280;55638;51.122;13.606;2023-05-21T04:11:36;100280.84;;;10.36;59.94
68656;BME280;55638;51.122;13.606;2023-05-21T04:13:09;100283.31;;;10.39;59.98
68656;BME280;55638;51.122;13.606;2023-05-21T04:14:40;100288.19;;;10.46;60.18
68656;BME280;55638;51.122;13.606;2023-05-21T04:16:14;100288.53;;;10.52;60.22
68656;BME280;55638;51.122;13.606;2023-05-21T04:17:50;100288.91;;;10.59;60.34
68656;BME280;55638;51.122;13.606;2023-05-21T04:19:23;100287.53;;;10.64;60.41
68656;BME280;55638;51.122;13.606;2023-05-21T04:20:55;100286.09;;;10.72;60.43
68656;BME280;55638;51.122;13.606;2023-05-21T04:22:27;100290.84;;;10.79;60.50
68656;BME280;55638;51.122;13.606;2023-05-21T04:23:59;100284.94;;;10.85;60.70
68656;BME280;55638;51.122;13.606;2023-05-21T04:25:49;100289.44;;;10.96;60.73
68656;BME280;55638;51.122;13.606;2023-05-21T04:27:21;100284.25;;;11.04;60.80
68656;BME280;55638;51.122;13.606;2023-05-21T04:28:55;100284.34;;;11.14;60.81
68656;BME280;55638;51.122;13.606;2023-05-21T04:30:27;100284.41;;;11.24;60.73
68656;BME280;55638;51.122;13.606;2023-05-21T04:31:59;100280.94;;;11.33;60.81
68656;BME280;55638;51.122;13.606;2023-05-21T04:33:31;100272.91;;;11.43;60.83
68656;BME280;55638;51.122;13.606;2023-05-21T04:35:03;100271.97;;;11.53;60.76
68656;BME280;55638;51.122;13.606;2023-05-21T04:36:35;100282.56;;;11.66;60.96
68656;BME280;55638;51.122;13.606;2023-05-21T04:38:07;100284.50;;;11.75;60.93
68656;BME280;55638;51.122;13.606;2023-05-21T04:39:39;100283.44;;;11.88;60.79
68656;BME280;55638;51.122;13.606;2023-05-21T04:41:13;100288.75;;;11.99;60.63
68656;BME280;55638;51.122;13.606;2023-05-21T04:42:45;100284.13;;;12.11;60.52
68656;BME280;55638;51.122;13.606;2023-05-21T04:44:19;100285.84;;;12.21;60.24
68656;BME280;55638;51.122;13.606;2023-05-21T04:45:54;100290.28;;;12.32;60.03
68656;BME280;55638;51.122;13.606;2023-05-21T04:47:27;100289.34;;;12.43;60.25
68656;BME280;55638;51.122;13.606;2023-05-21T04:49:08;100288.25;;;12.55;60.19
68656;BME280;55638;51.122;13.606;2023-05-21T04:50:42;100287.28;;;12.66;60.15
68656;BME280;55638;51.122;13.606;2023-05-21T04:52:14;100295.16;;;12.79;60.33
68656;BME280;55638;51.122;13.606;2023-05-21T04:53:47;100294.59;;;12.94;60.66
68656;BME280;55638;51.122;13.606;2023-05-21T04:55:20;100286.63;;;13.12;60.99
68656;BME280;55638;51.122;13.606;2023-05-21T04:56:53;100280.34;;;13.31;61.53
68656;BME280;55638;51.122;13.606;2023-05-21T04:58:25;100280.88;;;13.54;61.98
68656;BME280;55638;51.122;13.606;2023-05-21T04:59:58;100278.31;;;13.82;62.26
68656;BME280;55638;51.122;13.606;2023-05-21T05:01:32;100278.75;;;14.14;62.34
68656;BME280;55638;51.122;13.606;2023-05-21T05:03:05;100286.13;;;14.50;61.81
68656;BME280;55638;51.122;13.606;2023-05-21T05:04:38;100286.38;;;14.84;61.50
68656;BME280;55638;51.122;13.606;2023-05-21T05:06:10;100280.94;;;15.20;60.72
68656;BME280;55638;51.122;13.606;2023-05-21T05:07:43;100275.19;;;15.59;60.26
68656;BME280;55638;51.122;13.606;2023-05-21T05:09:14;100283.94;;;15.96;59.94
68656;BME280;55638;51.122;13.606;2023-05-21T05:10:47;100278.16;;;16.34;59.43
68656;BME280;55638;51.122;13.606;2023-05-21T05:12:19;100275.94;;;16.72;58.59
68656;BME280;55638;51.122;13.606;2023-05-21T05:13:51;100274.47;;;17.10;58.26
68656;BME280;55638;51.122;13.606;2023-05-21T05:15:23;100275.88;;;17.47;58.00
68656;BME280;55638;51.122;13.606;2023-05-21T05:16:55;100269.00;;;17.83;57.06
68656;BME280;55638;51.122;13.606;2023-05-21T05:18:32;100269.25;;;18.21;56.57
68656;BME280;55638;51.122;13.606;2023-05-21T05:20:08;100268.56;;;18.59;55.26
68656;BME280;55638;51.122;13.606;2023-05-21T05:21:41;100266.34;;;18.93;55.57
68656;BME280;55638;51.122;13.606;2023-05-21T05:23:13;100267.44;;;19.30;54.83
68656;BME280;55638;51.122;13.606;2023-05-21T05:24:45;100264.25;;;19.64;54.41
68656;BME280;55638;51.122;13.606;2023-05-21T05:26:18;100269.38;;;19.97;53.51
68656;BME280;55638;51.122;13.606;2023-05-21T05:27:50;100261.00;;;20.28;52.92
68656;BME280;55638;51.122;13.606;2023-05-21T05:29:22;100264.34;;;20.60;52.52
68656;BME280;55638;51.122;13.606;2023-05-21T05:30:54;100261.78;;;20.88;51.79
68656;BME280;55638;51.122;13.606;2023-05-21T05:32:28;100251.06;;;21.15;51.26
68656;BME280;55638;51.122;13.606;2023-05-21T05:34:00;100261.44;;;21.41;50.23
68656;BME280;55638;51.122;13.606;2023-05-21T05:35:32;100254.91;;;21.63;49.79
68656;BME280;55638;51.122;13.606;2023-05-21T05:37:05;100248.88;;;21.81;48.69
68656;BME280;55638;51.122;13.606;2023-05-21T05:38:37;100253.44;;;21.95;48.05
68656;BME280;55638;51.122;13.606;2023-05-21T05:40:09;100252.66;;;22.08;47.45
68656;BME280;55638;51.122;13.606;2023-05-21T05:41:41;100254.63;;;22.14;46.83
68656;BME280;55638;51.122;13.606;2023-05-21T05:43:13;100252.09;;;22.19;46.49
68656;BME280;55638;51.122;13.606;2023-05-21T05:44:45;100246.44;;;22.21;45.98
68656;BME280;55638;51.122;13.606;2023-05-21T05:46:16;100251.09;;;22.20;45.90
68656;BME280;55638;51.122;13.606;2023-05-21T05:47:49;100244.50;;;22.15;45.48
68656;BME280;55638;51.122;13.606;2023-05-21T05:49:21;100243.19;;;22.11;45.57
68656;BME280;55638;51.122;13.606;2023-05-21T05:50:53;100241.25;;;22.04;45.54
68656;BME280;55638;51.122;13.606;2023-05-21T05:52:28;100242.06;;;21.98;45.28
68656;BME280;55638;51.122;13.606;2023-05-21T05:54:00;100242.00;;;21.92;45.58
68656;BME280;55638;51.122;13.606;2023-05-21T05:55:31;100241.56;;;21.88;46.19
68656;BME280;55638;51.122;13.606;2023-05-21T05:57:04;100244.50;;;21.87;46.43
68656;BME280;55638;51.122;13.606;2023-05-21T05:58:37;100243.25;;;21.89;47.06
68656;BME280;55638;51.122;13.606;2023-05-21T06:00:15;100243.28;;;21.96;47.52
68656;BME280;55638;51.122;13.606;2023-05-21T06:01:51;100242.72;;;22.07;47.20
68656;BME280;55638;51.122;13.606;2023-05-21T06:03:25;100248.78;;;22.24;47.07
68656;BME280;55638;51.122;13.606;2023-05-21T06:04:57;100240.19;;;22.40;47.29
68656;BME280;55638;51.122;13.606;2023-05-21T06:06:29;100246.59;;;22.61;46.73
68656;BME280;55638;51.122;13.606;2023-05-21T06:08:02;100245.00;;;22.80;46.35
68656;BME280;55638;51.122;13.606;2023-05-21T06:09:34;100246.50;;;22.95;45.64
68656;BME280;55638;51.122;13.606;2023-05-21T06:11:06;100255.63;;;23.09;45.40
68656;BME280;55638;51.122;13.606;2023-05-21T06:12:38;100249.28;;;23.22;45.20
68656;BME280;55638;51.122;13.606;2023-05-21T06:14:10;100248.88;;;23.32;45.00
68656;BME280;55638;51.122;13.606;2023-05-21T06:15:42;100250.78;;;23.38;44.73
68656;BME280;55638;51.122;13.606;2023-05-21T06:17:14;100250.16;;;23.42;44.22
68656;BME280;55638;51.122;13.606;2023-05-21T06:18:46;100253.56;;;23.45;44.12
68656;BME280;55638;51.122;13.606;2023-05-21T06:20:18;100253.34;;;23.46;43.49
68656;BME280;55638;51.122;13.606;2023-05-21T06:21:50;100245.94;;;23.47;44.07
68656;BME280;55638;51.122;13.606;2023-05-21T06:23:22;100240.66;;;23.45;43.63
68656;BME280;55638;51.122;13.606;2023-05-21T06:24:54;100253.34;;;23.46;44.36
68656;BME280;55638;51.122;13.606;2023-05-21T06:26:25;100246.59;;;23.49;44.18
68656;BME280;55638;51.122;13.606;2023-05-21T06:27:57;100247.41;;;23.49;44.35
68656;BME280;55638;51.122;13.606;2023-05-21T06:29:31;100250.59;;;23.53;43.67
68656;BME280;55638;51.122;13.606;2023-05-21T06:31:04;100237.91;;;23.58;43.70
68656;BME280;55638;51.122;13.606;2023-05-21T06:32:38;100243.81;;;23.62;44.06
68656;BME280;55638;51.122;13.606;2023-05-21T06:34:10;100243.81;;;23.69;43.70
68656;BME280;55638;51.122;13.606;2023-05-21T06:35:42;100247.63;;;23.74;43.63
68656;BME280;55638;51.122;13.606;2023-05-21T06:37:18;100244.00;;;23.80;43.50
68656;BME280;55638;51.122;13.606;2023-05-21T06:38:51;100242.09;;;23.87;43.77
68656;BME280;55638;51.122;13.606;2023-05-21T06:40:23;100244.63;;;23.96;43.35
68656;BME280;55638;51.122;13.606;2023-05-21T06:41:58;100247.16;;;24.04;43.63
68656;BME280;55638;51.122;13.606;2023-05-21T06:44:03;100242.47;;;24.11;43.18
68656;BME280;55638;51.122;13.606;2023-05-21T06:46:06;100243.72;;;24.15;42.51
68656;BME280;55638;51.122;13.606;2023-05-21T06:47:42;100242.69;;;24.16;42.57
68656;BME280;55638;51.122;13.606;2023-05-21T06:49:14;100247.34;;;24.16;42.02
68656;BME280;55638;51.122;13.606;2023-05-21T06:50:47;100254.75;;;24.15;42.06
68656;BME280;55638;51.122;13.606;2023-05-21T06:52:19;100241.44;;;24.12;41.65
68656;BME280;55638;51.122;13.606;2023-05-21T06:53:51;100246.94;;;24.05;41.56
68656;BME280;55638;51.122;13.606;2023-05-21T06:55:23;100248.44;;;24.01;41.72
68656;BME280;55638;51.122;13.606;2023-05-21T06:57:09;100252.25;;;23.94;41.79
68656;BME280;55638;51.122;13.606;2023-05-21T06:58:41;100237.84;;;23.85;41.68
68656;BME280;55638;51.122;13.606;2023-05-21T07:00:13;100240.84;;;23.77;41.48
68656;BME280;55638;51.122;13.606;2023-05-21T07:01:46;100249.31;;;23.69;42.23
68656;BME280;55638;51.122;13.606;2023-05-21T07:03:18;100251.44;;;23.60;41.73
68656;BME280;55638;51.122;13.606;2023-05-21T07:04:50;100249.34;;;23.49;41.51
68656;BME280;55638;51.122;13.606;2023-05-21T07:06:24;100256.75;;;23.41;41.85
68656;BME280;55638;51.122;13.606;2023-05-21T07:07:56;100250.13;;;23.29;42.11
68656;BME280;55638;51.122;13.606;2023-05-21T07:09:28;100246.75;;;23.20;42.31
68656;BME280;55638;51.122;13.606;2023-05-21T07:11:00;100250.53;;;23.13;42.09
68656;BME280;55638;51.122;13.606;2023-05-21T07:12:31;100253.50;;;23.05;42.13
68656;BME280;55638;51.122;13.606;2023-05-21T07:14:03;100249.88;;;22.98;42.64
68656;BME280;55638;51.122;13.606;2023-05-21T07:15:37;100246.28;;;22.90;43.09
68656;BME280;55638;51.122;13.606;2023-05-21T07:17:09;100256.00;;;22.86;43.14
68656;BME280;55638;51.122;13.606;2023-05-21T07:18:41;100251.75;;;22.84;43.39
68656;BME280;55638;51.122;13.606;2023-05-21T07:20:13;100253.84;;;22.82;43.43
68656;BME280;55638;51.122;13.606;2023-05-21T07:21:49;100258.50;;;22.81;43.84
68656;BME280;55638;51.122;13.606;2023-05-21T07:23:21;100256.59;;;22.82;44.04
68656;BME280;55638;51.122;13.606;2023-05-21T07:24:53;100257.25;;;22.84;43.87
68656;BME280;55638;51.122;13.606;2023-05-21T07:26:25;100257.91;;;22.86;43.63
68656;BME280;55638;51.122;13.606;2023-05-21T07:27:57;100250.09;;;22.89;43.66
68656;BME280;55638;51.122;13.606;2023-05-21T07:29:29;100257.50;;;22.95;43.91
68656;BME280;55638;51.122;13.606;2023-05-21T07:31:01;100258.97;;;22.98;44.11
68656;BME280;55638;51.122;13.606;2023-05-21T07:32:39;100253.50;;;23.05;44.07
68656;BME280;55638;51.122;13.606;2023-05-21T07:34:11;100241.03;;;23.09;43.38
68656;BME280;55638;51.122;13.606;2023-05-21T07:35:45;100240.19;;;23.15;43.42
68656;BME280;55638;51.122;13.606;2023-05-21T07:37:17;100244.88;;;23.21;43.65
68656;BME280;55638;51.122;13.606;2023-05-21T07:38:50;100243.16;;;23.27;43.55
68656;BME280;55638;51.122;13.606;2023-05-21T07:40:22;100248.88;;;23.32;43.60
68656;BME280;55638;51.122;13.606;2023-05-21T07:41:54;100249.06;;;23.37;43.74
68656;BME280;55638;51.122;13.606;2023-05-21T07:43:26;100249.34;;;23.42;43.84
68656;BME280;55638;51.122;13.606;2023-05-21T07:44:59;100247.66;;;23.48;43.57
68656;BME280;55638;51.122;13.606;2023-05-21T07:46:35;100253.56;;;23.51;43.61
68656;BME280;55638;51.122;13.606;2023-05-21T07:48:08;100251.25;;;23.55;43.33
68656;BME280;55638;51.122;13.606;2023-05-21T07:49:45;100240.41;;;23.60;43.39
68656;BME280;55638;51.122;13.606;2023-05-21T07:51:18;100251.88;;;23.63;43.36
68656;BME280;55638;51.122;13.606;2023-05-21T07:52:50;100244.66;;;23.69;43.38
68656;BME280;55638;51.122;13.606;2023-05-21T07:54:24;100244.63;;;23.76;43.36
68656;BME280;55638;51.122;13.606;2023-05-21T07:55:57;100236.38;;;23.82;43.15
68656;BME280;55638;51.122;13.606;2023-05-21T07:57:32;100236.81;;;23.93;43.63
68656;BME280;55638;51.122;13.606;2023-05-21T07:59:06;100237.00;;;24.04;43.81
68656;BME280;55638;51.122;13.606;2023-05-21T08:00:44;100238.88;;;24.17;43.20
68656;BME280;55638;51.122;13.606;2023-05-21T08:02:17;100238.63;;;24.32;43.17